HKEL

Eldoret International Airport

Eldoret, Kenya
TAF HKEL 211100Z 2112/2212 20005KT 9999 SCT022 BECMG 2112/2115 16010KT FEW022CB SCT023 BECMG 2118/2121 09005KT CAVOK BECMG 2121/2123 SCT020 BKN250
Issued Valid From Valid To
Jul-21 @ 11:00 UTC
(12 hours ago)
Jul-21 @ 12:00 UTC
(11 hours ago)
Jul-22 @ 12:00 UTC
(in 13 hours)
Jul-21 @ 12:00 to Jul-22 @ 12:00
TAF HKEL 211100Z 2112/2212 20005KT 9999 SCT022
Wind Visibility Clouds
200° at 5 knots 10,000+ meters
  • Scattered at 2,200' AGL
Expired Click to View Jul-21 @ 12:00 to Jul-21 @ 18:00
BECMG 2112/2115 16010KT FEW022CB SCT023
Wind Visibility Clouds
160° at 10 knots 10,000+ meters
  • Few at 2,200' AGL
  • Scattered at 2,300' AGL
Expired Click to View Jul-21 @ 18:00 to Jul-21 @ 21:00
BECMG 2118/2121 09005KT CAVOK
Wind Visibility Clouds Conditions
90° at 5 knots 10,000+ meters
  • No significant clouds
Becoming Jul-21 @ 21:00 to Jul-22 @ 12:00
BECMG 2121/2123 SCT020 BKN250
Wind Visibility Clouds Conditions
90° at 5 knots 10,000+ meters
  • Scattered at 2,000' AGL
  • Broken at 25,000' AGL
TAF HKEL 211100Z 2112/2212 20005KT 9999 SCT022 BECMG 2112/2115 16010KT FEW022CB SCT023 BECMG 2118/2121 09005KT CAVOK BECMG 2121/2123 SCT020 BKN250
Issued Jul-21 @ 11:00 UTC
(12 hours ago)
Valid From Jul-21 @ 12:00 UTC
(11 hours ago)
Valid To Jul-22 @ 12:00 UTC
(in 13 hours)
Jul-21 @ 12:00 - Jul-22 @ 12:00
Wind Visibility
200° at 5 knots 10,000+ meters
Clouds
  • Scattered at 2,200' AGL
Jul-21 @ 12:00 - Jul-21 @ 18:00
Wind Visibility
160° at 10 knots 10,000+ meters
Clouds
  • Few at 2,200' AGL
  • Scattered at 2,300' AGL
Jul-21 @ 18:00 - Jul-21 @ 21:00
Wind Visibility
90° at 5 knots 10,000+ meters
Clouds
  • No significant clouds
Conditions
Becoming Jul-21 @ 21:00 - Jul-22 @ 12:00
Wind Visibility
90° at 5 knots 10,000+ meters
Clouds
  • Scattered at 2,000' AGL
  • Broken at 25,000' AGL
Conditions